sensor_id;sensor_type;location;lat;lon;timestamp;pressure;altitude;pressure_sealevel;temperature;humidity
63321;BME280;49449;48.800;9.534;2023-03-04T00:00:29;99103.63;;;3.08;37.66
63321;BME280;49449;48.800;9.534;2023-03-04T00:02:57;99106.22;;;3.00;37.36
63321;BME280;49449;48.800;9.534;2023-03-04T00:05:25;99102.50;;;3.02;37.82
63321;BME280;49449;48.800;9.534;2023-03-04T00:07:54;99107.84;;;3.09;37.38
63321;BME280;49449;48.800;9.534;2023-03-04T00:10:22;99101.97;;;3.07;37.53
63321;BME280;49449;48.800;9.534;2023-03-04T00:12:49;99098.56;;;3.06;37.63
63321;BME280;49449;48.800;9.534;2023-03-04T00:15:17;99104.41;;;3.09;37.40
63321;BME280;49449;48.800;9.534;2023-03-04T00:17:45;99100.16;;;3.07;37.46
63321;BME280;49449;48.800;9.534;2023-03-04T00:20:13;99107.34;;;3.05;37.63
63321;BME280;49449;48.800;9.534;2023-03-04T00:22:41;99105.75;;;3.04;37.69
63321;BME280;49449;48.800;9.534;2023-03-04T00:25:10;99108.84;;;3.00;37.69
63321;BME280;49449;48.800;9.534;2023-03-04T00:27:37;99103.63;;;3.00;37.98
63321;BME280;49449;48.800;9.534;2023-03-04T00:30:06;99110.63;;;2.99;38.14
63321;BME280;49449;48.800;9.534;2023-03-04T00:32:34;99112.59;;;2.97;37.48
63321;BME280;49449;48.800;9.534;2023-03-04T00:35:02;99111.94;;;2.95;37.71
63321;BME280;49449;48.800;9.534;2023-03-04T00:37:30;99116.03;;;2.98;37.80
63321;BME280;49449;48.800;9.534;2023-03-04T00:39:58;99111.75;;;2.97;37.62
63321;BME280;49449;48.800;9.534;2023-03-04T00:42:27;99111.94;;;2.95;37.81
63321;BME280;49449;48.800;9.534;2023-03-04T00:44:55;99105.91;;;2.95;37.78
63321;BME280;49449;48.800;9.534;2023-03-04T00:47:23;99105.25;;;2.93;37.76
63321;BME280;49449;48.800;9.534;2023-03-04T00:49:50;99105.09;;;2.86;37.50
63321;BME280;49449;48.800;9.534;2023-03-04T00:52:18;99119.59;;;2.80;37.76
63321;BME280;49449;48.800;9.534;2023-03-04T00:54:46;99108.69;;;2.77;37.71
63321;BME280;49449;48.800;9.534;2023-03-04T00:57:14;99106.22;;;2.75;37.03
63321;BME280;49449;48.800;9.534;2023-03-04T00:59:43;99100.03;;;2.68;37.45
63321;BME280;49449;48.800;9.534;2023-03-04T01:02:11;99101.34;;;2.64;37.88
63321;BME280;49449;48.800;9.534;2023-03-04T01:04:39;99097.41;;;2.68;37.86
63321;BME280;49449;48.800;9.534;2023-03-04T01:07:08;99096.75;;;2.66;37.64
63321;BME280;49449;48.800;9.534;2023-03-04T01:09:36;99096.28;;;2.62;37.83
63321;BME280;49449;48.800;9.534;2023-03-04T01:12:04;99098.09;;;2.62;37.81
63321;BME280;49449;48.800;9.534;2023-03-04T01:14:31;99098.72;;;2.64;37.96
63321;BME280;49449;48.800;9.534;2023-03-04T01:17:01;99093.34;;;2.65;37.87
63321;BME280;49449;48.800;9.534;2023-03-04T01:19:28;99093.00;;;2.68;37.63
63321;BME280;49449;48.800;9.534;2023-03-04T01:21:56;99092.34;;;2.66;38.17
63321;BME280;49449;48.800;9.534;2023-03-04T01:24:24;99086.81;;;2.61;37.74
63321;BME280;49449;48.800;9.534;2023-03-04T01:26:52;99081.91;;;2.50;37.42
63321;BME280;49449;48.800;9.534;2023-03-04T01:29:20;99077.69;;;2.41;37.62
63321;BME280;49449;48.800;9.534;2023-03-04T01:31:47;99082.53;;;2.44;37.59
63321;BME280;49449;48.800;9.534;2023-03-04T01:34:16;99074.91;;;2.42;37.89
63321;BME280;49449;48.800;9.534;2023-03-04T01:36:44;99073.59;;;2.38;38.29
63321;BME280;49449;48.800;9.534;2023-03-04T01:39:12;99074.38;;;2.39;38.65
63321;BME280;49449;48.800;9.534;2023-03-04T01:41:40;99079.44;;;2.40;38.10
63321;BME280;49449;48.800;9.534;2023-03-04T01:44:08;99076.03;;;2.40;38.00
63321;BME280;49449;48.800;9.534;2023-03-04T01:46:38;99073.09;;;2.43;37.78
63321;BME280;49449;48.800;9.534;2023-03-04T01:49:08;99080.44;;;2.39;37.70
63321;BME280;49449;48.800;9.534;2023-03-04T01:51:41;99072.28;;;2.34;38.14
63321;BME280;49449;48.800;9.534;2023-03-04T01:54:09;99075.34;;;2.29;37.93
63321;BME280;49449;48.800;9.534;2023-03-04T01:56:38;99074.22;;;2.24;37.62
63321;BME280;49449;48.800;9.534;2023-03-04T01:59:09;99076.50;;;2.27;38.03
63321;BME280;49449;48.800;9.534;2023-03-04T02:01:37;99079.47;;;2.32;37.79
63321;BME280;49449;48.800;9.534;2023-03-04T02:04:06;99075.03;;;2.33;37.17
63321;BME280;49449;48.800;9.534;2023-03-04T02:06:35;99087.78;;;2.36;37.90
63321;BME280;49449;48.800;9.534;2023-03-04T02:09:05;99084.66;;;2.32;37.16
63321;BME280;49449;48.800;9.534;2023-03-04T02:11:34;99085.78;;;2.29;37.33
63321;BME280;49449;48.800;9.534;2023-03-04T02:14:03;99077.63;;;2.24;37.39
63321;BME280;49449;48.800;9.534;2023-03-04T02:16:31;99077.28;;;2.11;37.61
63321;BME280;49449;48.800;9.534;2023-03-04T02:18:59;99070.09;;;1.97;37.88
63321;BME280;49449;48.800;9.534;2023-03-04T02:21:28;99073.03;;;2.02;37.69
63321;BME280;49449;48.800;9.534;2023-03-04T02:24:02;99068.75;;;1.92;38.20
63321;BME280;49449;48.800;9.534;2023-03-04T02:26:35;99075.59;;;1.94;38.02
63321;BME280;49449;48.800;9.534;2023-03-04T02:29:04;99073.81;;;1.94;38.64
63321;BME280;49449;48.800;9.534;2023-03-04T02:31:34;99069.59;;;1.93;38.04
63321;BME280;49449;48.800;9.534;2023-03-04T02:34:04;99073.66;;;1.96;37.78
63321;BME280;49449;48.800;9.534;2023-03-04T02:36:33;99072.34;;;2.00;38.11
63321;BME280;49449;48.800;9.534;2023-03-04T02:39:04;99073.84;;;2.02;38.28
63321;BME280;49449;48.800;9.534;2023-03-04T02:41:32;99071.34;;;1.92;37.97
63321;BME280;49449;48.800;9.534;2023-03-04T02:44:01;99075.56;;;1.85;37.82
63321;BME280;49449;48.800;9.534;2023-03-04T02:46:29;99074.59;;;1.86;38.23
63321;BME280;49449;48.800;9.534;2023-03-04T02:48:57;99072.00;;;1.86;37.65
63321;BME280;49449;48.800;9.534;2023-03-04T02:51:25;99073.81;;;1.86;37.83
63321;BME280;49449;48.800;9.534;2023-03-04T02:53:52;99071.69;;;1.89;37.59
63321;BME280;49449;48.800;9.534;2023-03-04T02:56:20;99073.16;;;1.92;38.42
63321;BME280;49449;48.800;9.534;2023-03-04T02:58:48;99077.22;;;1.86;43.35
63321;BME280;49449;48.800;9.534;2023-03-04T03:01:17;99076.88;;;1.81;40.02
63321;BME280;49449;48.800;9.534;2023-03-04T03:03:45;99074.47;;;1.88;39.16
63321;BME280;49449;48.800;9.534;2023-03-04T03:06:12;99077.06;;;1.88;38.43
63321;BME280;49449;48.800;9.534;2023-03-04T03:08:40;99077.72;;;1.90;38.21
63321;BME280;49449;48.800;9.534;2023-03-04T03:11:08;99078.38;;;1.92;37.73
63321;BME280;49449;48.800;9.534;2023-03-04T03:13:35;99084.22;;;1.94;38.09
63321;BME280;49449;48.800;9.534;2023-03-04T03:16:04;99080.81;;;1.94;37.88
63321;BME280;49449;48.800;9.534;2023-03-04T03:18:33;99090.44;;;1.93;37.64
63321;BME280;49449;48.800;9.534;2023-03-04T03:21:01;99086.34;;;1.90;37.62
63321;BME280;49449;48.800;9.534;2023-03-04T03:23:28;99081.44;;;1.87;38.29
63321;BME280;49449;48.800;9.534;2023-03-04T03:25:56;99079.16;;;1.84;37.60
63321;BME280;49449;48.800;9.534;2023-03-04T03:28:24;99074.25;;;1.81;37.70
63321;BME280;49449;48.800;9.534;2023-03-04T03:30:51;99078.81;;;1.79;37.66
63321;BME280;49449;48.800;9.534;2023-03-04T03:33:19;99072.47;;;1.82;37.69
63321;BME280;49449;48.800;9.534;2023-03-04T03:35:48;99071.31;;;1.76;38.57
63321;BME280;49449;48.800;9.534;2023-03-04T03:38:16;99082.19;;;1.71;38.28
63321;BME280;49449;48.800;9.534;2023-03-04T03:40:44;99074.38;;;1.71;37.49
63321;BME280;49449;48.800;9.534;2023-03-04T03:43:12;99063.28;;;1.69;37.94
63321;BME280;49449;48.800;9.534;2023-03-04T03:45:39;99067.25;;;1.73;37.50
63321;BME280;49449;48.800;9.534;2023-03-04T03:48:07;99068.50;;;1.69;37.75
63321;BME280;49449;48.800;9.534;2023-03-04T03:50:35;99063.09;;;1.63;37.76
63321;BME280;49449;48.800;9.534;2023-03-04T03:53:05;99068.16;;;1.56;38.35
63321;BME280;49449;48.800;9.534;2023-03-04T03:55:33;99065.53;;;1.56;38.41
63321;BME280;49449;48.800;9.534;2023-03-04T03:58:01;99068.16;;;1.56;37.70
63321;BME280;49449;48.800;9.534;2023-03-04T04:00:28;99062.59;;;1.59;38.19
63321;BME280;49449;48.800;9.534;2023-03-04T04:02:57;99064.03;;;1.53;37.83
63321;BME280;49449;48.800;9.534;2023-03-04T04:05:26;99068.91;;;1.48;37.93
63321;BME280;49449;48.800;9.534;2023-03-04T04:07:54;99072.94;;;1.43;37.72
63321;BME280;49449;48.800;9.534;2023-03-04T04:10:23;99076.34;;;1.43;38.21
63321;BME280;49449;48.800;9.534;2023-03-04T04:12:51;99073.88;;;1.42;37.98
63321;BME280;49449;48.800;9.534;2023-03-04T04:15:18;99077.03;;;1.45;38.06
63321;BME280;49449;48.800;9.534;2023-03-04T04:17:46;99084.84;;;1.45;37.93
63321;BME280;49449;48.800;9.534;2023-03-04T04:20:14;99080.31;;;1.47;38.26
63321;BME280;49449;48.800;9.534;2023-03-04T04:22:42;99081.91;;;1.48;37.92
63321;BME280;49449;48.800;9.534;2023-03-04T04:25:09;99084.03;;;1.45;38.04
63321;BME280;49449;48.800;9.534;2023-03-04T04:27:39;99083.06;;;1.46;37.56
63321;BME280;49449;48.800;9.534;2023-03-04T04:30:07;99083.97;;;1.37;37.07
63321;BME280;49449;48.800;9.534;2023-03-04T04:32:35;99083.53;;;1.23;37.48
63321;BME280;49449;48.800;9.534;2023-03-04T04:35:03;99079.41;;;1.12;37.58
63321;BME280;49449;48.800;9.534;2023-03-04T04:37:31;99093.53;;;1.10;38.06
63321;BME280;49449;48.800;9.534;2023-03-04T04:39:59;99092.22;;;1.06;38.71
63321;BME280;49449;48.800;9.534;2023-03-04T04:42:27;99084.25;;;1.07;38.50
63321;BME280;49449;48.800;9.534;2023-03-04T04:44:56;99086.88;;;1.07;38.27
63321;BME280;49449;48.800;9.534;2023-03-04T04:47:24;99088.31;;;1.10;38.66
63321;BME280;49449;48.800;9.534;2023-03-04T04:49:51;99083.97;;;1.10;37.72
63321;BME280;49449;48.800;9.534;2023-03-04T04:52:19;99087.31;;;1.03;38.39
63321;BME280;49449;48.800;9.534;2023-03-04T04:54:47;99077.59;;;0.87;38.56
63321;BME280;49449;48.800;9.534;2023-03-04T04:57:15;99086.16;;;0.79;38.25
63321;BME280;49449;48.800;9.534;2023-03-04T04:59:42;99077.16;;;0.91;38.13
63321;BME280;49449;48.800;9.534;2023-03-04T05:02:11;99079.47;;;0.94;37.88
63321;BME280;49449;48.800;9.534;2023-03-04T05:04:39;99080.94;;;0.97;38.27
63321;BME280;49449;48.800;9.534;2023-03-04T05:07:07;99082.94;;;1.03;38.01
63321;BME280;49449;48.800;9.534;2023-03-04T05:09:35;99083.44;;;1.07;38.16
63321;BME280;49449;48.800;9.534;2023-03-04T05:12:02;99092.44;;;1.12;37.80
63321;BME280;49449;48.800;9.534;2023-03-04T05:14:30;99089.69;;;1.14;37.22
63321;BME280;49449;48.800;9.534;2023-03-04T05:16:58;99096.31;;;1.08;38.01
63321;BME280;49449;48.800;9.534;2023-03-04T05:19:27;99091.09;;;1.08;38.13
63321;BME280;49449;48.800;9.534;2023-03-04T05:21:55;99099.88;;;1.07;38.15
63321;BME280;49449;48.800;9.534;2023-03-04T05:24:22;99107.81;;;1.06;37.77
63321;BME280;49449;48.800;9.534;2023-03-04T05:26:50;99105.09;;;1.07;37.29
63321;BME280;49449;48.800;9.534;2023-03-04T05:29:18;99103.63;;;1.05;37.69
63321;BME280;49449;48.800;9.534;2023-03-04T05:31:46;99100.31;;;1.03;37.59
63321;BME280;49449;48.800;9.534;2023-03-04T05:34:13;99103.06;;;1.01;38.43
63321;BME280;49449;48.800;9.534;2023-03-04T05:36:43;99106.66;;;1.00;37.96
63321;BME280;49449;48.800;9.534;2023-03-04T05:39:10;99109.84;;;0.94;37.72
63321;BME280;49449;48.800;9.534;2023-03-04T05:41:38;99107.06;;;0.87;37.77
63321;BME280;49449;48.800;9.534;2023-03-04T05:44:06;99113.47;;;0.75;37.71
63321;BME280;49449;48.800;9.534;2023-03-04T05:46:34;99116.19;;;0.73;38.51
63321;BME280;49449;48.800;9.534;2023-03-04T05:49:01;99115.06;;;0.76;37.56
63321;BME280;49449;48.800;9.534;2023-03-04T05:51:29;99113.97;;;0.78;38.49
63321;BME280;49449;48.800;9.534;2023-03-04T05:53:58;99103.84;;;0.75;37.78
63321;BME280;49449;48.800;9.534;2023-03-04T05:56:26;99106.59;;;0.74;37.77
63321;BME280;49449;48.800;9.534;2023-03-04T05:58:56;99116.19;;;0.73;38.00
63321;BME280;49449;48.800;9.534;2023-03-04T06:01:23;99115.38;;;0.73;38.33
63321;BME280;49449;48.800;9.534;2023-03-04T06:03:51;99116.34;;;0.72;37.84
63321;BME280;49449;48.800;9.534;2023-03-04T06:06:19;99117.16;;;0.72;37.87
63321;BME280;49449;48.800;9.534;2023-03-04T06:08:47;99119.25;;;0.69;38.18
63321;BME280;49449;48.800;9.534;2023-03-04T06:11:16;99126.16;;;0.60;38.16
63321;BME280;49449;48.800;9.534;2023-03-04T06:13:44;99116.25;;;0.46;38.22
63321;BME280;49449;48.800;9.534;2023-03-04T06:16:11;99116.25;;;0.46;37.57
63321;BME280;49449;48.800;9.534;2023-03-04T06:18:39;99114.09;;;0.41;37.63
63321;BME280;49449;48.800;9.534;2023-03-04T06:21:07;99117.97;;;0.37;37.45
63321;BME280;49449;48.800;9.534;2023-03-04T06:23:34;99125.38;;;0.32;37.62
63321;BME280;49449;48.800;9.534;2023-03-04T06:26:02;99130.44;;;0.33;38.34
63321;BME280;49449;48.800;9.534;2023-03-04T06:28:32;99133.28;;;0.40;38.54
63321;BME280;49449;48.800;9.534;2023-03-04T06:31:00;99133.50;;;0.47;38.38
63321;BME280;49449;48.800;9.534;2023-03-04T06:33:27;99139.63;;;0.55;38.10
63321;BME280;49449;48.800;9.534;2023-03-04T06:35:56;99144.63;;;0.57;43.10
63321;BME280;49449;48.800;9.534;2023-03-04T06:38:24;99147.72;;;0.70;39.25
63321;BME280;49449;48.800;9.534;2023-03-04T06:40:53;99150.91;;;0.82;39.15
63321;BME280;49449;48.800;9.534;2023-03-04T06:43:22;99157.00;;;0.91;39.17
63321;BME280;49449;48.800;9.534;2023-03-04T06:45:52;99154.44;;;0.99;38.57
63321;BME280;49449;48.800;9.534;2023-03-04T06:48:19;99165.59;;;1.09;39.15
63321;BME280;49449;48.800;9.534;2023-03-04T06:50:47;99166.63;;;1.16;38.32
63321;BME280;49449;48.800;9.534;2023-03-04T06:53:15;99160.00;;;1.22;38.56
63321;BME280;49449;48.800;9.534;2023-03-04T06:55:42;99165.56;;;1.27;38.50
63321;BME280;49449;48.800;9.534;2023-03-04T06:58:10;99158.41;;;1.29;38.10
63321;BME280;49449;48.800;9.534;2023-03-04T07:00:38;99168.38;;;1.34;37.83
63321;BME280;49449;48.800;9.534;2023-03-04T07:03:08;99170.69;;;1.37;38.32
63321;BME280;49449;48.800;9.534;2023-03-04T07:05:37;99173.00;;;1.40;37.56
63321;BME280;49449;48.800;9.534;2023-03-04T07:08:05;99167.50;;;1.43;37.76
63321;BME280;49449;48.800;9.534;2023-03-04T07:10:33;99175.09;;;1.37;38.42
63321;BME280;49449;48.800;9.534;2023-03-04T07:13:01;99169.97;;;1.27;38.28
63321;BME280;49449;48.800;9.534;2023-03-04T07:15:29;99167.81;;;1.22;38.77
63321;BME280;49449;48.800;9.534;2023-03-04T07:17:57;99173.13;;;1.12;38.36
63321;BME280;49449;48.800;9.534;2023-03-04T07:20:26;99176.81;;;1.10;39.32
63321;BME280;49449;48.800;9.534;2023-03-04T07:22:56;99187.44;;;1.16;40.81
63321;BME280;49449;48.800;9.534;2023-03-04T07:25:24;99195.41;;;1.15;39.79
63321;BME280;49449;48.800;9.534;2023-03-04T07:27:53;99202.16;;;1.26;40.17
63321;BME280;49449;48.800;9.534;2023-03-04T07:30:21;99199.34;;;1.37;40.04
63321;BME280;49449;48.800;9.534;2023-03-04T07:32:48;99192.28;;;1.47;40.12
63321;BME280;49449;48.800;9.534;2023-03-04T07:35:16;99196.44;;;1.58;40.13
63321;BME280;49449;48.800;9.534;2023-03-04T07:37:45;99200.06;;;1.65;40.94
63321;BME280;49449;48.800;9.534;2023-03-04T07:40:13;99206.28;;;1.72;42.28
63321;BME280;49449;48.800;9.534;2023-03-04T07:42:41;99203.03;;;1.79;42.30
63321;BME280;49449;48.800;9.534;2023-03-04T07:45:10;99204.84;;;1.78;43.51
63321;BME280;49449;48.800;9.534;2023-03-04T07:47:38;99210.19;;;1.68;42.12
63321;BME280;49449;48.800;9.534;2023-03-04T07:50:08;99212.66;;;1.78;41.62
63321;BME280;49449;48.800;9.534;2023-03-04T07:52:37;99211.06;;;1.85;40.36
63321;BME280;49449;48.800;9.534;2023-03-04T07:55:07;99206.53;;;1.87;39.64
63321;BME280;49449;48.800;9.534;2023-03-04T07:57:37;99208.63;;;1.84;40.47
63321;BME280;49449;48.800;9.534;2023-03-04T08:00:06;99211.94;;;1.94;39.68
63321;BME280;49449;48.800;9.534;2023-03-04T08:02:34;99205.97;;;2.02;40.31
63321;BME280;49449;48.800;9.534;2023-03-04T08:05:03;99214.44;;;2.04;40.09
63321;BME280;49449;48.800;9.534;2023-03-04T08:07:31;99210.25;;;2.11;39.80
63321;BME280;49449;48.800;9.534;2023-03-04T08:09:58;99214.97;;;2.16;40.65
63321;BME280;49449;48.800;9.534;2023-03-04T08:12:28;99205.53;;;2.23;40.33
63321;BME280;49449;48.800;9.534;2023-03-04T08:14:55;99210.31;;;2.27;40.12
63321;BME280;49449;48.800;9.534;2023-03-04T08:17:23;99217.81;;;2.30;39.80
63321;BME280;49449;48.800;9.534;2023-03-04T08:19:51;99217.19;;;2.37;40.32
63321;BME280;49449;48.800;9.534;2023-03-04T08:22:19;99221.94;;;2.41;39.92
63321;BME280;49449;48.800;9.534;2023-03-04T08:24:47;99215.41;;;2.45;39.64
63321;BME280;49449;48.800;9.534;2023-03-04T08:27:15;99224.59;;;2.49;39.77
63321;BME280;49449;48.800;9.534;2023-03-04T08:29:44;99227.69;;;2.53;40.24
63321;BME280;49449;48.800;9.534;2023-03-04T08:32:12;99223.78;;;2.57;40.46
63321;BME280;49449;48.800;9.534;2023-03-04T08:34:40;99235.69;;;2.60;40.20
63321;BME280;49449;48.800;9.534;2023-03-04T08:37:07;99227.84;;;2.60;41.61
63321;BME280;49449;48.800;9.534;2023-03-04T08:39:35;99235.69;;;2.60;41.35
63321;BME280;49449;48.800;9.534;2023-03-04T08:42:03;99234.69;;;2.53;42.04
63321;BME280;49449;48.800;9.534;2023-03-04T08:44:31;99229.13;;;2.47;42.26
63321;BME280;49449;48.800;9.534;2023-03-04T08:47:00;99236.97;;;2.56;41.74
63321;BME280;49449;48.800;9.534;2023-03-04T08:49:27;99240.25;;;2.58;41.23
63321;BME280;49449;48.800;9.534;2023-03-04T08:51:55;99231.59;;;2.57;41.21
63321;BME280;49449;48.800;9.534;2023-03-04T08:54:23;99237.78;;;2.56;39.95
63321;BME280;49449;48.800;9.534;2023-03-04T08:56:50;99241.88;;;2.59;39.89
63321;BME280;49449;48.800;9.534;2023-03-04T08:59:18;99229.34;;;2.62;39.42
63321;BME280;49449;48.800;9.534;2023-03-04T09:01:46;99234.25;;;2.65;40.46
63321;BME280;49449;48.800;9.534;2023-03-04T09:04:15;99231.22;;;2.36;38.20
63321;BME280;49449;48.800;9.534;2023-03-04T09:06:43;99243.78;;;2.06;39.26
63321;BME280;49449;48.800;9.534;2023-03-04T09:09:10;99249.75;;;1.98;39.48
63321;BME280;49449;48.800;9.534;2023-03-04T09:11:38;99251.50;;;1.89;39.37
63321;BME280;49449;48.800;9.534;2023-03-04T09:14:06;99241.97;;;1.80;39.64
63321;BME280;49449;48.800;9.534;2023-03-04T09:16:33;99248.78;;;1.73;39.80
63321;BME280;49449;48.800;9.534;2023-03-04T09:19:01;99246.44;;;1.62;39.87
63321;BME280;49449;48.800;9.534;2023-03-04T09:21:30;99247.69;;;1.58;40.42
63321;BME280;49449;48.800;9.534;2023-03-04T09:23:58;99246.34;;;1.53;40.46
63321;BME280;49449;48.800;9.534;2023-03-04T09:26:27;99242.31;;;1.41;40.78
63321;BME280;49449;48.800;9.534;2023-03-04T09:28:57;99240.72;;;1.40;41.50
63321;BME280;49449;48.800;9.534;2023-03-04T09:31:26;99237.50;;;1.28;42.09
63321;BME280;49449;48.800;9.534;2023-03-04T09:33:56;99238.53;;;1.35;43.07
63321;BME280;49449;48.800;9.534;2023-03-04T09:36:24;99240.50;;;1.51;42.40
63321;BME280;49449;48.800;9.534;2023-03-04T09:38:53;99237.94;;;1.60;41.69
63321;BME280;49449;48.800;9.534;2023-03-04T09:41:24;99242.81;;;1.54;41.74
63321;BME280;49449;48.800;9.534;2023-03-04T09:43:53;99243.19;;;1.86;42.17
63321;BME280;49449;48.800;9.534;2023-03-04T09:46:26;99241.59;;;1.67;41.84
63321;BME280;49449;48.800;9.534;2023-03-04T09:48:56;99245.00;;;1.94;41.65
63321;BME280;49449;48.800;9.534;2023-03-04T09:51:40;99234.34;;;2.13;41.20
63321;BME280;49449;48.800;9.534;2023-03-04T09:54:10;99234.72;;;2.18;40.71
63321;BME280;49449;48.800;9.534;2023-03-04T09:56:41;99237.25;;;2.02;39.92
63321;BME280;49449;48.800;9.534;2023-03-04T09:59:16;99243.69;;;1.89;40.58
63321;BME280;49449;48.800;9.534;2023-03-04T10:01:52;99244.47;;;2.16;40.92
63321;BME280;49449;48.800;9.534;2023-03-04T10:04:28;99245.50;;;2.32;40.09
63321;BME280;49449;48.800;9.534;2023-03-04T10:06:57;99245.88;;;2.37;41.48
63321;BME280;49449;48.800;9.534;2023-03-04T10:09:35;99242.34;;;2.46;39.91
63321;BME280;49449;48.800;9.534;2023-03-04T10:12:11;99241.94;;;2.33;39.92
63321;BME280;49449;48.800;9.534;2023-03-04T10:14:44;99235.25;;;2.30;39.63
63321;BME280;49449;48.800;9.534;2023-03-04T10:17:18;99240.72;;;2.19;40.44
63321;BME280;49449;48.800;9.534;2023-03-04T10:19:53;99231.22;;;2.44;41.32
63321;BME280;49449;48.800;9.534;2023-03-04T10:22:28;99227.00;;;2.43;39.81
63321;BME280;49449;48.800;9.534;2023-03-04T10:25:13;99229.31;;;2.54;40.38
63321;BME280;49449;48.800;9.534;2023-03-04T10:27:42;99221.53;;;2.71;40.91
63321;BME280;49449;48.800;9.534;2023-03-04T10:30:19;99231.97;;;2.79;40.85
63321;BME280;49449;48.800;9.534;2023-03-04T10:32:49;99229.25;;;2.89;40.66
63321;BME280;49449;48.800;9.534;2023-03-04T10:35:19;99228.25;;;2.81;39.23
63321;BME280;49449;48.800;9.534;2023-03-04T10:37:49;99224.16;;;2.79;40.82
63321;BME280;49449;48.800;9.534;2023-03-04T10:40:22;99229.41;;;2.95;40.27
63321;BME280;49449;48.800;9.534;2023-03-04T10:42:52;99228.09;;;3.07;40.14
63321;BME280;49449;48.800;9.534;2023-03-04T10:45:23;99226.16;;;3.18;40.62
63321;BME280;49449;48.800;9.534;2023-03-04T10:47:52;99228.44;;;3.13;38.83
63321;BME280;49449;48.800;9.534;2023-03-04T10:50:22;99228.78;;;3.10;40.76
63321;BME280;49449;48.800;9.534;2023-03-04T10:52:50;99218.97;;;3.20;41.71
63321;BME280;49449;48.800;9.534;2023-03-04T10:55:23;99220.31;;;3.24;40.70
63321;BME280;49449;48.800;9.534;2023-03-04T10:57:54;99212.78;;;3.21;38.78
63321;BME280;49449;48.800;9.534;2023-03-04T11:00:27;99211.31;;;3.27;37.77
63321;BME280;49449;48.800;9.534;2023-03-04T11:03:22;99205.13;;;3.03;37.55
63321;BME280;49449;48.800;9.534;2023-03-04T11:06:06;99200.38;;;2.90;37.76
63321;BME280;49449;48.800;9.534;2023-03-04T11:08:38;99199.72;;;3.04;37.88
63321;BME280;49449;48.800;9.534;2023-03-04T11:11:22;99197.13;;;3.21;38.39
63321;BME280;49449;48.800;9.534;2023-03-04T11:13:53;99200.06;;;3.42;39.59
63321;BME280;49449;48.800;9.534;2023-03-04T11:16:25;99199.09;;;3.52;38.18
63321;BME280;49449;48.800;9.534;2023-03-04T11:18:55;99194.69;;;3.52;38.43
63321;BME280;49449;48.800;9.534;2023-03-04T11:21:28;99200.88;;;3.59;39.13
63321;BME280;49449;48.800;9.534;2023-03-04T11:23:59;99196.63;;;3.67;39.74
63321;BME280;49449;48.800;9.534;2023-03-04T11:26:30;99197.75;;;3.72;39.29
63321;BME280;49449;48.800;9.534;2023-03-04T11:29:07;99195.63;;;3.76;39.39
63321;BME280;49449;48.800;9.534;2023-03-04T11:31:44;99195.44;;;3.77;38.69
63321;BME280;49449;48.800;9.534;2023-03-04T11:34:19;99197.22;;;3.85;38.90
63321;BME280;49449;48.800;9.534;2023-03-04T11:36:53;99186.91;;;3.92;37.34
63321;BME280;49449;48.800;9.534;2023-03-04T11:39:28;99178.41;;;3.98;37.95
63321;BME280;49449;48.800;9.534;2023-03-04T11:42:02;99174.97;;;3.97;37.85
63321;BME280;49449;48.800;9.534;2023-03-04T11:44:32;99170.72;;;3.96;37.93
63321;BME280;49449;48.800;9.534;2023-03-04T11:47:20;99173.69;;;3.93;38.96
63321;BME280;49449;48.800;9.534;2023-03-04T11:50:03;99168.75;;;3.98;38.68
63321;BME280;49449;48.800;9.534;2023-03-04T11:55:38;99165.81;;;4.02;38.69
63321;BME280;49449;48.800;9.534;2023-03-04T11:58:21;99168.25;;;4.03;39.66
63321;BME280;49449;48.800;9.534;2023-03-04T12:01:03;99164.31;;;4.07;37.40
63321;BME280;49449;48.800;9.534;2023-03-04T12:03:54;99165.13;;;4.08;37.84
63321;BME280;49449;48.800;9.534;2023-03-04T12:06:34;99155.50;;;4.08;37.35
63321;BME280;49449;48.800;9.534;2023-03-04T12:09:17;99146.78;;;4.16;37.91
63321;BME280;49449;48.800;9.534;2023-03-04T12:11:57;99145.31;;;4.13;37.57
63321;BME280;49449;48.800;9.534;2023-03-04T12:14:33;99143.72;;;4.04;38.34
63321;BME280;49449;48.800;9.534;2023-03-04T12:17:34;99131.66;;;4.03;37.98
63321;BME280;49449;48.800;9.534;2023-03-04T12:20:17;99123.41;;;4.14;37.01
63321;BME280;49449;48.800;9.534;2023-03-04T12:22:52;99120.94;;;4.21;38.68
63321;BME280;49449;48.800;9.534;2023-03-04T12:25:34;99124.03;;;4.25;37.12
63321;BME280;49449;48.800;9.534;2023-03-04T12:28:17;99118.94;;;4.31;39.20
63321;BME280;49449;48.800;9.534;2023-03-04T12:33:50;99121.66;;;4.38;37.78
63321;BME280;49449;48.800;9.534;2023-03-04T12:36:28;99112.00;;;4.38;39.65
63321;BME280;49449;48.800;9.534;2023-03-04T12:39:14;99110.19;;;4.39;38.88
63321;BME280;49449;48.800;9.534;2023-03-04T12:41:55;99098.50;;;4.27;38.23
63321;BME280;49449;48.800;9.534;2023-03-04T12:44:30;99098.38;;;4.20;37.83
63321;BME280;49449;48.800;9.534;2023-03-04T12:47:16;99101.47;;;4.24;39.31
63321;BME280;49449;48.800;9.534;2023-03-04T12:49:54;99093.56;;;4.32;37.69
63321;BME280;49449;48.800;9.534;2023-03-04T12:52:39;99080.44;;;4.40;37.07
63321;BME280;49449;48.800;9.534;2023-03-04T12:55:14;99084.50;;;4.43;40.25
63321;BME280;49449;48.800;9.534;2023-03-04T12:57:42;99083.31;;;4.45;40.69
63321;BME280;49449;48.800;9.534;2023-03-04T13:00:21;99084.00;;;4.47;39.56
63321;BME280;49449;48.800;9.534;2023-03-04T13:03:10;99078.28;;;4.44;40.57
63321;BME280;49449;48.800;9.534;2023-03-04T13:05:53;99069.97;;;4.40;37.58
63321;BME280;49449;48.800;9.534;2023-03-04T13:08:25;99080.50;;;4.32;39.11
63321;BME280;49449;48.800;9.534;2023-03-04T13:11:00;99071.53;;;4.26;35.77
63321;BME280;49449;48.800;9.534;2023-03-04T13:13:38;99072.13;;;4.36;38.05
63321;BME280;49449;48.800;9.534;2023-03-04T13:16:29;99066.78;;;4.30;38.90
63321;BME280;49449;48.800;9.534;2023-03-04T13:19:00;99062.94;;;4.41;37.49
63321;BME280;49449;48.800;9.534;2023-03-04T13:21:29;99078.47;;;4.42;40.70
63321;BME280;49449;48.800;9.534;2023-03-04T13:24:00;99066.34;;;4.41;40.00
63321;BME280;49449;48.800;9.534;2023-03-04T13:26:50;99068.81;;;4.43;39.15
63321;BME280;49449;48.800;9.534;2023-03-04T13:29:33;99074.50;;;4.46;40.38
63321;BME280;49449;48.800;9.534;2023-03-04T13:32:03;99067.47;;;4.47;39.06